University Heights, Iowa
Current Conditions -  °F | °C
As of 8:52 PM on Friday 21 Nov 2014 (Local Time) from KIOW Reporting Station
Overcast Overcast  
Wind Chill: -3°   Ceiling: 2200
Heat Index:   Visibility: 10mi
Dew Point: -6°   Wind: 12mph
Humidity: 57%   Direction: 170°S
Pressure: 30.15"   Gusts: NA
Location:  41.5918°N, 91.6264°W
Report Text: KIOW 220252Z AUTO 17010KT 10SM OVC022 02/M06 A3015 RMK AO2 SLP219 T00171061 56019
Loading
Personal Weather Stations






























Interactive Weather Map New forecast layout! Learn more

10-Day Weather Forecast

Advertisements
Track Severe Weather on mobile